In Rescue
 
Open Full Screen Window  High Contrast Mode
August 19, 2022 6:18 AM EDT
Weather Information
Wind Direction
  ---
Wind Speed
  00 kt (0 mph)
Wind Gust
  00 kt (0 mph)
Altimeter
30.01 in
Visibility
10 SM
Temperature
13° C
55° F
Dewpoint
13° C
55° F
Humidity
100%
Sky Condition
Scattered @ 6,000 ft
VFR

METAR KRNP 191018Z AUTO 00000KT 10SM SCT060 13/13 A3001 RMK AO2 T01260126

FAA Disclaimer: The data displayed is for advisory purposes only and is not to be used for flight planning or operations.